Weather at Newcastle Airport

Public forecast

Using degrees Celsius for public forecast. Weather courtesy of forecast.io.

Closest aviation weather report (METAR) to Newcastle Airport

Report is more than 6 hours old.

Closest report is Ermelo Airport, 76.6 nm (141.8 km) N.

2022/11/13 08:42 (retrieved 2 years ago)

FAEO 130842Z 21010KT 9999 FEW010 OVC060 ///// Q1023 RERA

Closest aviation forecast (TAF) to Newcastle Airport

Forecast is more than 12 hours old.

Closest forecast is King Shaka International Airport, 126.0 nm (233.4 km) SSE.

2023/02/22 18:00 (retrieved 1 year ago)

TAF FALE 221600Z 2218/2324 02007KT 9999 SCT028 BKN040 TX28/2312Z TN19/2304Z TEMPO 2218/2224 BKN015 BECMG 2222/2224 VRB03KT FM230800 04015KT CAVOK